createdAt,value
2017-10-13T00:01:51.545Z,101522.66
2017-10-13T00:04:18.938Z,101526.20
2017-10-13T00:06:46.327Z,101525.45
2017-10-13T00:09:13.715Z,101525.70
2017-10-13T00:11:41.106Z,101519.81
2017-10-13T00:14:08.509Z,101525.70
2017-10-13T00:16:35.911Z,101527.12
2017-10-13T00:19:03.295Z,101527.50
2017-10-13T00:21:30.687Z,101526.48
2017-10-13T00:23:58.070Z,101525.07
2017-10-13T00:26:25.471Z,101534.33
2017-10-13T00:28:52.859Z,101540.24
2017-10-13T00:31:20.259Z,101541.20
2017-10-13T00:33:47.645Z,101544.44
2017-10-13T00:36:15.035Z,101551.66
2017-10-13T00:38:42.425Z,101551.79
2017-10-13T00:41:09.814Z,101557.25
2017-10-13T00:43:37.199Z,101558.20
2017-10-13T00:46:04.607Z,101554.55
2017-10-13T00:48:32.003Z,101559.42
2017-10-13T00:50:59.402Z,101558.55
2017-10-13T00:53:26.782Z,101555.20
2017-10-13T00:55:54.187Z,101554.73
2017-10-13T00:58:21.580Z,101554.64
2017-10-13T01:00:48.974Z,101557.88
2017-10-13T01:03:16.358Z,101555.87
2017-10-13T01:05:43.866Z,101565.33
2017-10-13T01:08:11.258Z,101570.62
2017-10-13T01:10:38.646Z,101569.41
2017-10-13T01:13:06.035Z,101573.58
2017-10-13T01:15:33.418Z,101571.21
2017-10-13T01:18:00.812Z,101572.54
2017-10-13T01:20:28.202Z,101573.13
2017-10-13T01:22:55.595Z,101565.90
2017-10-13T01:25:22.998Z,101564.92
2017-10-13T01:27:50.394Z,101568.50
2017-10-13T01:30:17.787Z,101559.75
2017-10-13T01:32:45.182Z,101553.41
2017-10-13T01:35:12.574Z,101550.83
2017-10-13T01:37:39.966Z,101553.84
2017-10-13T01:40:07.366Z,101553.61
2017-10-13T01:42:34.787Z,101548.23
2017-10-13T01:45:02.251Z,101547.41
2017-10-13T01:47:29.707Z,101549.02
2017-10-13T01:49:57.110Z,101552.56
2017-10-13T01:52:24.498Z,101553.16
2017-10-13T01:54:51.979Z,101541.88
2017-10-13T01:57:19.365Z,101546.02
2017-10-13T01:59:46.762Z,101543.77
2017-10-13T02:02:14.153Z,101541.50
2017-10-13T02:04:41.551Z,101543.86
2017-10-13T02:07:08.941Z,101535.50
2017-10-13T02:09:36.339Z,101545.05
2017-10-13T02:12:03.731Z,101543.53
2017-10-13T02:14:31.218Z,101545.64
2017-10-13T02:16:58.610Z,101548.55
2017-10-13T02:19:26.005Z,101544.84
2017-10-13T02:21:53.393Z,101540.98
2017-10-13T02:24:20.790Z,101545.45
2017-10-13T02:26:48.182Z,101550.38
2017-10-13T02:29:15.612Z,101554.00
2017-10-13T02:31:43.002Z,101561.84
2017-10-13T02:34:10.398Z,101556.77
2017-10-13T02:36:37.786Z,101564.85
2017-10-13T02:39:05.183Z,101567.97
2017-10-13T02:41:32.575Z,101562.55
2017-10-13T02:43:59.966Z,101561.55
2017-10-13T02:46:27.364Z,101563.83
2017-10-13T02:48:54.770Z,101567.87
2017-10-13T02:51:22.162Z,101559.26
2017-10-13T02:53:49.602Z,101553.07
2017-10-13T02:56:16.986Z,101557.94
2017-10-13T02:58:44.387Z,101559.53
2017-10-13T03:01:11.782Z,101558.64
2017-10-13T03:03:39.181Z,101562.55
2017-10-13T03:06:06.567Z,101560.64
2017-10-13T03:08:33.957Z,101563.27
2017-10-13T03:11:01.402Z,101567.20
2017-10-13T03:13:28.795Z,101566.80
2017-10-13T03:15:56.190Z,101568.77
2017-10-13T03:18:23.582Z,101574.24
2017-10-13T03:20:50.975Z,101576.17
2017-10-13T03:23:18.371Z,101572.22
2017-10-13T03:25:45.763Z,101575.64
2017-10-13T03:28:13.146Z,101584.98
2017-10-13T03:30:40.543Z,101580.94
2017-10-13T03:33:07.931Z,101579.14
2017-10-13T03:35:35.334Z,101587.62
2017-10-13T03:38:02.771Z,101586.67
2017-10-13T03:40:30.168Z,101588.47
2017-10-13T03:42:57.554Z,101589.61
2017-10-13T03:45:24.953Z,101597.49
2017-10-13T03:47:52.333Z,101597.97
2017-10-13T03:50:19.729Z,101593.99
2017-10-13T03:52:47.118Z,101593.03
2017-10-13T03:55:14.514Z,101590.09
2017-10-13T03:57:41.911Z,101590.50
2017-10-13T04:00:09.323Z,101595.09
2017-10-13T04:02:36.710Z,101593.20
2017-10-13T04:05:04.103Z,101601.62
2017-10-13T04:07:31.503Z,101596.94
2017-10-13T04:09:58.895Z,101594.36
2017-10-13T04:12:26.287Z,101597.59
2017-10-13T04:14:53.689Z,101597.72
2017-10-13T04:17:21.174Z,101597.82
2017-10-13T04:19:48.566Z,101596.39
2017-10-13T04:22:15.981Z,101594.88
2017-10-13T04:24:43.371Z,101593.36
2017-10-13T04:27:10.771Z,101597.45
2017-10-13T04:29:38.158Z,101588.97
2017-10-13T04:32:05.556Z,101596.67
2017-10-13T04:34:32.946Z,101603.64
2017-10-13T04:37:00.341Z,101598.28
2017-10-13T04:39:27.734Z,101599.25
2017-10-13T04:41:55.135Z,101603.58
2017-10-13T04:44:22.511Z,101604.75
2017-10-13T04:46:49.911Z,101607.41
2017-10-13T04:49:17.298Z,101604.83
2017-10-13T04:51:44.695Z,101613.52
2017-10-13T04:54:12.087Z,101614.93
2017-10-13T04:56:39.487Z,101615.70
2017-10-13T04:59:06.881Z,101622.44
2017-10-13T05:01:34.278Z,101612.96
2017-10-13T05:04:01.662Z,101615.94
2017-10-13T05:06:29.062Z,101611.70
2017-10-13T05:08:56.454Z,101614.98
2017-10-13T05:11:23.859Z,101615.61
2017-10-13T05:13:51.250Z,101619.23
2017-10-13T05:16:18.707Z,101609.98
2017-10-13T05:18:46.091Z,101617.55
2017-10-13T05:21:13.483Z,101616.34
2017-10-13T05:23:40.874Z,101608.02
2017-10-13T05:26:08.288Z,101610.86
2017-10-13T05:28:35.681Z,101605.22
2017-10-13T05:31:03.135Z,101613.43
2017-10-13T05:33:30.536Z,101617.91
2017-10-13T05:35:57.938Z,101614.78
2017-10-13T05:38:25.343Z,101615.90
2017-10-13T05:40:52.726Z,101620.98
2017-10-13T05:43:20.140Z,101619.49
2017-10-13T05:45:47.535Z,101623.69
2017-10-13T05:48:14.926Z,101623.20
2017-10-13T05:50:42.314Z,101635.70
2017-10-13T05:53:09.706Z,101636.70
2017-10-13T05:55:37.102Z,101634.53
2017-10-13T05:58:04.509Z,101641.63
2017-10-13T06:00:31.898Z,101641.19
2017-10-13T06:02:59.298Z,101642.58
2017-10-13T06:05:26.690Z,101640.95
2017-10-13T06:07:54.179Z,101636.00
2017-10-13T06:10:21.576Z,101631.41
2017-10-13T06:12:48.975Z,101636.95
2017-10-13T06:15:16.378Z,101636.61
2017-10-13T06:17:43.770Z,101646.57
2017-10-13T06:20:11.169Z,101648.38
2017-10-13T06:22:38.581Z,101654.66
2017-10-13T06:25:05.971Z,101655.70
2017-10-13T06:27:33.361Z,101653.90
2017-10-13T06:30:00.755Z,101655.03
2017-10-13T06:32:28.146Z,101642.59
2017-10-13T06:34:55.546Z,101644.30
2017-10-13T06:37:23.022Z,101647.28
2017-10-13T06:39:50.482Z,101647.09
2017-10-13T06:42:17.883Z,101644.80
2017-10-13T06:44:45.279Z,101648.60
2017-10-13T06:47:12.676Z,101656.20
2017-10-13T06:49:40.074Z,101651.68
2017-10-13T06:52:07.464Z,101650.47
2017-10-13T06:54:34.863Z,101653.91
2017-10-13T06:57:02.267Z,101645.08
2017-10-13T06:59:29.646Z,101647.39
2017-10-13T07:01:57.042Z,101651.48
2017-10-13T07:04:24.439Z,101646.98
2017-10-13T07:06:51.830Z,101656.35
2017-10-13T07:09:19.235Z,101651.80
2017-10-13T07:11:46.627Z,101648.81
2017-10-13T07:14:14.031Z,101650.53
2017-10-13T07:16:41.429Z,101647.86
2017-10-13T07:19:08.822Z,101656.06
2017-10-13T07:21:36.323Z,101660.06
2017-10-13T07:24:06.619Z,101656.52
2017-10-13T07:26:34.026Z,101660.26
2017-10-13T07:29:01.428Z,101658.91
2017-10-13T07:31:28.818Z,101652.41
2017-10-13T07:33:56.214Z,101655.20
2017-10-13T07:36:23.626Z,101657.31
2017-10-13T07:38:51.031Z,101657.79
2017-10-13T07:41:18.418Z,101661.40
2017-10-13T07:43:45.900Z,101670.98
2017-10-13T07:46:13.284Z,101673.80
2017-10-13T07:48:40.678Z,101674.55
2017-10-13T07:51:08.098Z,101679.95
2017-10-13T07:53:35.508Z,101685.71
2017-10-13T07:56:02.890Z,101682.30
2017-10-13T07:58:30.367Z,101686.08
2017-10-13T08:00:57.758Z,101685.34
2017-10-13T08:03:25.143Z,101686.73
2017-10-13T08:05:52.603Z,101690.38
2017-10-13T08:08:19.994Z,101687.06
2017-10-13T08:10:47.446Z,101687.67
2017-10-13T08:13:14.838Z,101686.17
2017-10-13T08:15:42.234Z,101679.95
2017-10-13T08:18:09.720Z,101680.23
2017-10-13T08:20:37.114Z,101682.81
2017-10-13T08:23:04.510Z,101678.81
2017-10-13T08:25:31.920Z,101678.38
2017-10-13T08:27:59.312Z,101674.34
2017-10-13T08:30:26.705Z,101684.70
2017-10-13T08:32:54.160Z,101690.50
2017-10-13T08:35:21.546Z,101697.05
2017-10-13T08:37:48.950Z,101696.91
2017-10-13T08:40:16.340Z,101694.19
2017-10-13T11:44:46.531Z,101695.70
2017-10-13T11:47:14.019Z,101699.16
2017-10-13T11:49:41.435Z,101694.41
2017-10-13T11:52:08.821Z,101686.56
2017-10-13T11:54:36.215Z,101687.25
2017-10-13T11:57:03.612Z,101689.00
2017-10-13T11:59:31.000Z,101695.95
2017-10-13T12:01:58.471Z,101700.39
2017-10-13T12:04:25.846Z,101698.48
2017-10-13T12:06:53.243Z,101710.22
2017-10-13T12:09:20.642Z,101701.39
2017-10-13T12:11:48.031Z,101699.25
2017-10-13T12:14:15.423Z,101696.14
2017-10-13T12:16:42.818Z,101687.72
2017-10-13T12:19:10.251Z,101691.53
2017-10-13T12:21:37.650Z,101689.53
2017-10-13T12:24:05.067Z,101691.14
2017-10-13T12:26:32.458Z,101684.91
2017-10-13T12:28:59.847Z,101685.05
2017-10-13T12:31:27.243Z,101682.70
2017-10-13T12:33:54.635Z,101693.66
2017-10-13T12:36:22.915Z,101688.14
2017-10-13T12:38:50.318Z,101686.78
2017-10-13T12:41:17.716Z,101688.56
2017-10-13T12:43:45.133Z,101692.89
2017-10-13T12:46:12.520Z,101690.70
2017-10-13T12:48:39.942Z,101687.64
2017-10-13T12:51:07.326Z,101683.66
2017-10-13T12:53:34.751Z,101696.53
2017-10-13T12:56:02.160Z,101692.13
2017-10-13T12:58:29.534Z,101687.09
2017-10-13T13:00:56.934Z,101683.52
2017-10-13T13:03:24.327Z,101682.72
2017-10-13T13:05:51.723Z,101690.50
2017-10-13T13:08:19.114Z,101689.71
2017-10-13T13:10:46.514Z,101695.41
2017-10-13T13:13:13.915Z,101688.03
2017-10-13T13:15:41.302Z,101688.94
2017-10-13T13:18:08.699Z,101693.86
2017-10-13T13:20:36.094Z,101697.23
2017-10-13T13:23:03.501Z,101697.92
2017-10-13T13:25:30.891Z,101688.52
2017-10-13T13:27:58.284Z,101684.83
2017-10-13T13:30:25.674Z,101683.70
2017-10-13T13:32:53.070Z,101681.59
2017-10-13T13:35:20.574Z,101674.97
2017-10-13T13:37:47.979Z,101683.56
2017-10-13T13:40:15.367Z,101679.47
2017-10-13T13:42:42.759Z,101689.05
2017-10-13T13:45:10.154Z,101687.91
2017-10-13T13:47:37.546Z,101680.09
2017-10-13T13:50:04.939Z,101679.26
2017-10-13T13:52:32.327Z,101679.75
2017-10-13T13:54:59.739Z,101676.22
2017-10-13T13:57:27.127Z,101679.25
2017-10-13T13:59:54.527Z,101681.88
2017-10-13T14:02:21.916Z,101684.84
2017-10-13T14:04:49.318Z,101684.72
2017-10-13T14:07:16.744Z,101686.65
2017-10-13T14:09:44.134Z,101688.08
2017-10-13T14:12:11.526Z,101686.59
2017-10-13T14:14:38.930Z,101681.59
2017-10-13T14:17:06.465Z,101680.45
2017-10-13T14:19:33.875Z,101678.52
2017-10-13T14:22:01.262Z,101672.34
2017-10-13T14:24:28.655Z,101679.06
2017-10-13T14:26:56.051Z,101674.06
2017-10-13T14:29:23.444Z,101667.55
2017-10-13T14:31:50.904Z,101673.01
2017-10-13T14:34:18.279Z,101666.83
2017-10-13T14:36:45.671Z,101667.13
2017-10-13T14:39:13.081Z,101661.12
2017-10-13T14:41:40.470Z,101659.20
2017-10-13T14:44:07.871Z,101659.69
2017-10-13T14:46:35.262Z,101657.14
2017-10-13T14:49:02.667Z,101659.82
2017-10-13T14:51:30.063Z,101661.62
2017-10-13T14:53:57.462Z,101663.89
2017-10-13T14:56:25.015Z,101663.41
2017-10-13T14:58:52.435Z,101670.06
2017-10-13T15:01:19.830Z,101669.33
2017-10-13T15:03:47.232Z,101666.88
2017-10-13T15:06:14.622Z,101670.79
2017-10-13T15:08:42.031Z,101677.76
2017-10-13T15:11:09.441Z,101672.06
2017-10-13T15:13:36.835Z,101677.49
2017-10-13T15:16:04.227Z,101674.66
2017-10-13T15:18:31.624Z,101675.68
2017-10-13T15:20:59.010Z,101671.41
2017-10-13T15:23:26.398Z,101670.44
2017-10-13T15:25:54.709Z,101673.11
2017-10-13T15:28:27.597Z,101670.43
2017-10-13T15:31:00.595Z,101677.83
2017-10-13T15:33:33.450Z,101684.47
2017-10-13T15:36:06.328Z,101683.31
2017-10-13T15:38:39.187Z,101685.46
2017-10-13T15:44:15.134Z,101684.31
2017-10-13T15:46:48.042Z,101686.27
2017-10-13T15:49:31.130Z,101684.98
2017-10-13T15:52:04.046Z,101688.23
2017-10-13T15:54:31.435Z,101687.81
2017-10-13T15:56:58.843Z,101694.17
2017-10-13T15:59:26.235Z,101692.84
2017-10-13T16:01:53.658Z,101693.48
2017-10-13T16:04:21.052Z,101702.75
2017-10-13T16:34:50.122Z,101699.59
2017-10-13T16:37:17.511Z,101694.03
2017-10-13T16:39:44.903Z,101699.45
2017-10-13T16:42:12.291Z,101695.23
2017-10-13T16:44:39.691Z,101694.81
2017-10-13T16:47:07.078Z,101694.22
2017-10-13T16:49:34.483Z,101691.70
2017-10-13T16:52:01.871Z,101693.81
2017-10-13T16:54:29.281Z,101682.55
2017-10-13T16:56:56.741Z,101687.23
2017-10-13T16:59:24.122Z,101688.86
2017-10-13T17:01:51.536Z,101691.25
2017-10-13T17:04:18.995Z,101700.67
2017-10-13T17:06:46.386Z,101698.59
2017-10-13T17:09:13.770Z,101702.36
2017-10-13T17:11:41.159Z,101704.42
2017-10-13T17:14:08.555Z,101703.27
2017-10-13T17:16:35.949Z,101698.75
2017-10-13T17:19:03.354Z,101696.89
2017-10-13T17:21:30.746Z,101695.30
2017-10-13T17:23:58.134Z,101694.28
2017-10-13T17:26:25.534Z,101693.55
2017-10-13T17:28:52.946Z,101691.50
2017-10-13T17:31:20.350Z,101696.25
2017-10-13T17:33:47.738Z,101696.39
2017-10-13T17:36:15.134Z,101705.64
2017-10-13T17:38:42.537Z,101699.52
2017-10-13T17:41:09.927Z,101698.63
2017-10-13T17:43:37.319Z,101701.13
2017-10-13T17:46:04.719Z,101697.86
2017-10-13T17:48:32.106Z,101695.34
2017-10-13T17:50:59.530Z,101696.77
2017-10-13T17:53:26.927Z,101692.30
2017-10-13T17:55:54.318Z,101695.47
2017-10-13T17:58:21.714Z,101694.06
2017-10-13T18:00:49.119Z,101706.41
2017-10-13T18:03:16.506Z,101707.81
2017-10-13T18:05:43.915Z,101706.72
2017-10-13T18:08:11.303Z,101715.48
2017-10-13T18:10:38.791Z,101709.39
2017-10-13T18:13:06.182Z,101713.17
2017-10-13T18:15:33.574Z,101708.32
2017-10-13T18:18:00.983Z,101711.91
2017-10-13T18:20:28.380Z,101711.52
2017-10-13T18:22:55.781Z,101709.77
2017-10-13T18:25:23.176Z,101714.95
2017-10-13T18:27:50.574Z,101717.00
2017-10-13T18:30:18.055Z,101715.31
2017-10-13T18:32:45.450Z,101720.17
2017-10-13T18:35:12.947Z,101711.00
2017-10-13T18:37:40.350Z,101716.60
2017-10-13T18:40:07.766Z,101713.94
2017-10-13T18:42:35.175Z,101715.34
2017-10-13T18:45:02.559Z,101716.39
2017-10-13T18:47:29.955Z,101710.94
2017-10-13T18:49:57.355Z,101706.66
2017-10-13T18:52:24.760Z,101708.06
2017-10-13T18:54:52.146Z,101715.83
2017-10-13T18:57:19.550Z,101711.16
2017-10-13T18:59:46.942Z,101712.70
2017-10-13T19:02:14.342Z,101712.78
2017-10-13T19:04:41.742Z,101716.53
2017-10-13T19:07:09.138Z,101724.39
2017-10-13T19:09:36.531Z,101723.36
2017-10-13T19:12:03.938Z,101724.59
2017-10-13T19:14:31.580Z,101728.11
2017-10-13T19:16:58.976Z,101730.61
2017-10-13T19:19:26.372Z,101728.65
2017-10-13T19:21:53.777Z,101733.84
2017-10-13T19:24:21.250Z,101728.23
2017-10-13T19:26:48.650Z,101722.70
2017-10-13T19:29:16.046Z,101720.22
2017-10-13T19:31:43.539Z,101723.08
2017-10-13T19:34:10.939Z,101719.50
2017-10-13T19:36:38.338Z,101725.01
2017-10-13T19:39:05.738Z,101727.13
2017-10-13T19:41:33.139Z,101726.13
2017-10-13T19:44:00.531Z,101725.59
2017-10-13T19:46:27.937Z,101718.67
2017-10-13T19:48:55.329Z,101720.03
2017-10-13T19:51:22.731Z,101718.77
2017-10-13T19:53:50.127Z,101719.38
2017-10-13T19:56:17.532Z,101711.56
2017-10-13T19:58:44.922Z,101714.20
2017-10-13T20:01:12.329Z,101712.38
2017-10-13T20:03:39.740Z,101715.05
2017-10-13T20:06:07.136Z,101707.22
2017-10-13T20:08:34.527Z,101709.48
2017-10-13T20:11:01.927Z,101712.89
2017-10-13T20:13:29.319Z,101710.95
2017-10-13T20:15:56.707Z,101713.40
2017-10-13T20:18:24.117Z,101717.33
2017-10-13T20:20:51.507Z,101718.52
2017-10-13T20:23:18.910Z,101726.88
2017-10-13T20:25:46.327Z,101723.97
2017-10-13T20:28:13.733Z,101725.00
2017-10-13T20:30:41.126Z,101722.66
2017-10-13T20:33:08.526Z,101728.00
2017-10-13T20:35:35.985Z,101733.95
2017-10-13T20:38:03.375Z,101729.17
2017-10-13T20:40:30.776Z,101728.52
2017-10-13T20:42:58.182Z,101732.11
2017-10-13T20:45:25.573Z,101729.92
2017-10-13T20:47:52.974Z,101726.17
2017-10-13T20:50:20.375Z,101728.81
2017-10-13T20:52:47.875Z,101732.81
2017-10-13T20:55:15.267Z,101730.06
2017-10-13T20:57:42.662Z,101734.23
2017-10-13T21:00:10.158Z,101734.41
2017-10-13T21:02:37.552Z,101724.75
2017-10-13T21:05:04.954Z,101727.09
2017-10-13T21:07:32.346Z,101726.13
2017-10-13T21:09:59.747Z,101718.36
2017-10-13T21:12:27.143Z,101721.34
2017-10-13T21:14:54.542Z,101721.41
2017-10-13T21:17:21.935Z,101721.84
2017-10-13T21:19:49.339Z,101715.37
2017-10-13T21:22:16.739Z,101716.44
2017-10-13T21:24:44.138Z,101723.98
2017-10-13T21:27:11.531Z,101721.22
2017-10-13T21:29:38.928Z,101718.12
2017-10-13T21:32:06.322Z,101720.06
2017-10-13T21:34:33.828Z,101717.73
2017-10-13T21:37:01.225Z,101723.66
2017-10-13T21:39:28.641Z,101722.73
2017-10-13T21:41:56.035Z,101726.81
2017-10-13T21:44:23.431Z,101720.97
2017-10-13T21:46:50.835Z,101721.16
2017-10-13T21:49:18.259Z,101713.45
2017-10-13T21:51:45.658Z,101713.86
2017-10-13T21:54:13.056Z,101715.89
2017-10-13T21:56:40.458Z,101710.95
2017-10-13T21:59:07.850Z,101706.61
2017-10-13T22:01:35.258Z,101714.34
2017-10-13T22:04:02.657Z,101717.70
2017-10-13T22:06:30.063Z,101718.41
2017-10-13T22:08:57.455Z,101715.80
2017-10-13T22:11:24.858Z,101710.65
2017-10-13T22:13:52.590Z,101714.19
2017-10-13T22:16:20.434Z,101715.69
2017-10-13T22:18:48.271Z,101724.72
2017-10-13T22:21:16.035Z,101714.80
2017-10-13T22:23:43.903Z,101713.95
2017-10-13T22:26:11.791Z,101714.13
2017-10-13T22:28:39.459Z,101712.52
2017-10-13T22:31:07.155Z,101723.00
2017-10-13T22:33:34.574Z,101722.63
2017-10-13T22:36:01.977Z,101721.13
2017-10-13T22:38:29.367Z,101724.34
2017-10-13T22:40:56.785Z,101725.51
2017-10-13T22:43:24.170Z,101726.64
2017-10-13T22:45:51.562Z,101730.07
2017-10-13T22:48:18.963Z,101723.55
2017-10-13T22:50:46.359Z,101725.56
2017-10-13T22:53:13.763Z,101727.77
2017-10-13T22:55:41.154Z,101725.07
2017-10-13T22:58:08.554Z,101725.30
2017-10-13T23:00:35.957Z,101719.73
2017-10-13T23:03:03.351Z,101727.41
2017-10-13T23:05:30.743Z,101730.18
2017-10-13T23:07:58.144Z,101731.01
2017-10-13T23:10:25.534Z,101734.92
2017-10-13T23:12:53.026Z,101730.02
2017-10-13T23:15:20.422Z,101726.59
2017-10-13T23:17:47.829Z,101725.28
2017-10-13T23:20:15.223Z,101726.17
2017-10-13T23:22:42.623Z,101726.44
2017-10-13T23:25:10.014Z,101736.35
2017-10-13T23:27:37.442Z,101726.13
2017-10-13T23:30:04.834Z,101725.51
2017-10-13T23:32:32.248Z,101727.27
2017-10-13T23:34:59.643Z,101736.81
2017-10-13T23:37:27.044Z,101727.11
2017-10-13T23:39:54.434Z,101728.47
2017-10-13T23:42:21.834Z,101728.59
2017-10-13T23:44:49.242Z,101733.12
2017-10-13T23:47:16.650Z,101733.09
2017-10-13T23:49:44.043Z,101729.08
2017-10-13T23:52:11.431Z,101728.30
2017-10-13T23:54:38.822Z,101734.70
2017-10-13T23:57:06.227Z,101731.33
2017-10-13T23:59:33.632Z,101729.34
